Time;durP1;ratioP1;P1;durP2;ratioP2;P2;SDS_P1;SDS_P2;PMS_P1;PMS_P2;Temp;Humidity;BMP_temperature;BMP_pressure;BME280_temperature;BME280_humidity;BME280_pressure;Samples;Min_cycle;Max_cycle;Signal;HPM_P1;HPM_P2
2021/09/03 12:30:52;;;;;;;19.00;8.10;;;;;;;;;;1037670;28;99855;-73
2021/09/03 12:31:25;;;;;;;17.85;7.70;;;;;;;;;;1035206;28;101219;-73
2021/09/03 12:31:59;;;;;;;16.08;7.60;;;;;;;;;;1036315;28;99907;-69
2021/09/03 12:32:29;;;;;;;13.82;7.30;;;;;;;;;;1030884;28;101362;-77
2021/09/03 12:33:29;;;;;;;17.25;7.15;;;;;;;;;;1032381;28;99805;-75
2021/09/03 12:34:08;;;;;;;11.23;7.15;;;;;;;;;;1031033;28;100405;-76
2021/09/03 12:34:41;;;;;;;12.68;7.22;;;;;;;;;;1032314;28;99902;-76
2021/09/03 12:35:14;;;;;;;12.73;7.00;;;;;;;;;;1030954;28;101423;-75
2021/09/03 12:35:45;;;;;;;10.23;6.85;;;;;;;;;;1032195;28;99833;-78
2021/09/03 12:36:27;;;;;;;13.52;7.45;;;;;;;;;;1030986;28;101430;-75
2021/09/03 12:37:00;;;;;;;13.43;7.00;;;;;;;;;;1031950;28;99848;-79
2021/09/03 12:37:31;;;;;;;15.77;7.20;;;;;;;;;;1031109;28;100171;-76
2021/09/03 12:38:02;;;;;;;28.92;8.48;;;;;;;;;;1032756;28;99808;-76
2021/09/03 12:38:40;;;;;;;25.33;8.13;;;;;;;;;;1014426;28;101979;-78
2021/09/03 12:39:21;;;;;;;23.55;8.23;;;;;;;;;;1015761;28;99817;-76
2021/09/03 12:39:52;;;;;;;17.90;7.75;;;;;;;;;;1013208;28;102408;-79
2021/09/03 12:40:23;;;;;;;17.30;7.03;;;;;;;;;;1017907;28;100006;-78
2021/09/03 12:41:05;;;;;;;15.38;7.20;;;;;;;;;;1019282;28;101542;-73
2021/09/03 12:41:41;;;;;;;17.98;7.72;;;;;;;;;;1025193;28;100013;-75
2021/09/03 12:42:15;;;;;;;14.40;6.78;;;;;;;;;;1026391;28;100466;-76
2021/09/03 12:42:46;;;;;;;16.08;6.82;;;;;;;;;;1027826;28;99927;-72
2021/09/03 12:43:17;;;;;;;16.92;7.30;;;;;;;;;;1026553;28;100740;-74
2021/09/03 12:43:53;;;;;;;11.15;7.03;;;;;;;;;;1027730;28;99971;-76
2021/09/03 12:44:26;;;;;;;13.20;6.95;;;;;;;;;;1026130;28;100223;-77
2021/09/03 12:45:00;;;;;;;14.23;7.30;;;;;;;;;;1030627;28;99816;-76
2021/09/03 12:45:47;;;;;;;11.85;7.15;;;;;;;;;;1030097;28;102303;-74
2021/09/03 12:46:19;;;;;;;10.38;6.97;;;;;;;;;;1031836;28;99840;-71
2021/09/03 12:47:09;;;;;;;10.90;7.05;;;;;;;;;;1030689;28;100268;-75
2021/09/03 12:47:40;;;;;;;11.77;7.63;;;;;;;;;;1028038;28;99960;-74
2021/09/03 12:48:11;;;;;;;13.20;7.35;;;;;;;;;;1026300;28;100310;-75
2021/09/03 12:48:47;;;;;;;13.32;7.25;;;;;;;;;;1027302;28;99857;-72
2021/09/03 12:49:21;;;;;;;15.32;6.47;;;;;;;;;;1026424;28;100381;-73
2021/09/03 12:49:52;;;;;;;10.68;6.65;;;;;;;;;;1028049;28;99943;-74
2021/09/03 12:50:23;;;;;;;11.85;7.40;;;;;;;;;;1025960;28;100287;-74
2021/09/03 12:50:54;;;;;;;11.43;7.15;;;;;;;;;;1027422;28;100125;-71
2021/09/03 12:51:25;;;;;;;12.05;7.30;;;;;;;;;;1025901;28;100336;-75
2021/09/03 12:52:01;;;;;;;10.70;6.70;;;;;;;;;;1027526;28;99996;-76
2021/09/03 12:52:34;;;;;;;9.35;6.78;;;;;;;;;;1021954;28;100785;-71
2021/09/03 12:53:05;;;;;;;13.45;6.80;;;;;;;;;;1023244;28;99948;-78
2021/09/03 12:53:35;;;;;;;11.20;6.68;;;;;;;;;;1021785;28;101328;-74
2021/09/03 12:54:07;;;;;;;9.95;6.78;;;;;;;;;;1023289;28;100129;-74
2021/09/03 12:54:39;;;;;;;11.55;7.28;;;;;;;;;;1025713;28;101890;-79
2021/09/03 12:55:09;;;;;;;11.52;6.60;;;;;;;;;;1026872;28;99991;-80
2021/09/03 12:55:40;;;;;;;12.15;7.40;;;;;;;;;;1025137;28;101861;-72
2021/09/03 12:56:11;;;;;;;16.30;7.60;;;;;;;;;;1026535;28;100117;-73
2021/09/03 12:56:43;;;;;;;10.73;6.68;;;;;;;;;;1025294;28;101011;-76
2021/09/03 12:57:16;;;;;;;11.35;7.20;;;;;;;;;;1022247;28;100067;-77
2021/09/03 12:57:46;;;;;;;11.30;7.22;;;;;;;;;;1021261;28;100344;-76
2021/09/03 12:58:17;;;;;;;9.63;6.97;;;;;;;;;;1022498;28;100075;-76
2021/09/03 12:58:48;;;;;;;11.68;7.18;;;;;;;;;;1023383;28;101556;-73
2021/09/03 12:59:20;;;;;;;9.40;7.03;;;;;;;;;;1030685;28;100207;-81
2021/09/03 12:59:51;;;;;;;9.52;7.45;;;;;;;;;;1029233;28;100587;-79
2021/09/03 13:00:22;;;;;;;8.90;6.18;;;;;;;;;;1026424;28;100190;-77
2021/09/03 13:00:54;;;;;;;13.68;6.95;;;;;;;;;;1025123;28;100522;-75
2021/09/03 13:01:25;;;;;;;10.13;6.85;;;;;;;;;;1023496;28;100111;-76
2021/09/03 13:01:57;;;;;;;12.65;7.20;;;;;;;;;;1018785;28;101353;-71
2021/09/03 13:02:29;;;;;;;14.73;7.80;;;;;;;;;;1024168;28;99919;-70
2021/09/03 13:03:00;;;;;;;11.38;7.00;;;;;;;;;;1026570;28;100355;-70
2021/09/03 13:03:31;;;;;;;13.60;7.45;;;;;;;;;;1031703;28;99950;-71
2021/09/03 13:04:02;;;;;;;13.15;7.10;;;;;;;;;;1030051;28;101488;-71
2021/09/03 13:04:34;;;;;;;11.35;7.38;;;;;;;;;;1031001;28;100059;-71
2021/09/03 13:05:05;;;;;;;10.98;7.07;;;;;;;;;;1028667;28;100803;-73
2021/09/03 13:05:38;;;;;;;10.93;6.85;;;;;;;;;;1029573;28;100858;-71
2021/09/03 13:06:12;;;;;;;13.85;7.07;;;;;;;;;;1025306;28;100473;-73
2021/09/03 13:06:48;;;;;;;8.93;6.25;;;;;;;;;;1027440;28;100253;-69
2021/09/03 13:07:19;;;;;;;9.13;7.28;;;;;;;;;;1028990;28;101539;-70
2021/09/03 13:07:52;;;;;;;11.18;6.68;;;;;;;;;;1030811;28;100048;-72
2021/09/03 13:08:23;;;;;;;10.02;6.75;;;;;;;;;;1029184;28;101514;-74
2021/09/03 13:08:55;;;;;;;11.00;6.85;;;;;;;;;;1026388;28;100250;-80
2021/09/03 13:09:28;;;;;;;12.45;6.97;;;;;;;;;;1021147;28;100381;-77
2021/09/03 13:09:59;;;;;;;13.48;7.63;;;;;;;;;;1023012;28;100125;-81
2021/09/03 13:10:30;;;;;;;10.32;6.47;;;;;;;;;;1025836;28;100413;-79
2021/09/03 13:11:01;;;;;;;8.77;6.60;;;;;;;;;;1027290;28;100253;-78
2021/09/03 13:11:32;;;;;;;11.93;6.72;;;;;;;;;;1029300;28;101014;-77
2021/09/03 13:12:03;;;;;;;9.18;6.38;;;;;;;;;;1030464;28;100068;-76
2021/09/03 13:12:34;;;;;;;10.18;6.60;;;;;;;;;;1029324;28;100500;-80
2021/09/03 13:13:11;;;;;;;12.50;7.38;;;;;;;;;;1030939;28;100063;-80
2021/09/03 13:13:47;;;;;;;9.77;6.88;;;;;;;;;;1029550;28;100909;-78
2021/09/03 13:14:21;;;;;;;10.68;6.57;;;;;;;;;;1026453;28;100048;-79
2021/09/03 13:14:53;;;;;;;13.30;6.68;;;;;;;;;;1024936;28;101529;-78
2021/09/03 13:15:24;;;;;;;11.07;6.72;;;;;;;;;;1028213;28;100194;-78
2021/09/03 13:15:54;;;;;;;10.77;6.75;;;;;;;;;;1029643;28;101459;-76
2021/09/03 13:16:29;;;;;;;8.35;6.85;;;;;;;;;;1031079;28;99957;-80
2021/09/03 13:17:00;;;;;;;9.32;6.80;;;;;;;;;;1030092;28;101923;-78
2021/09/03 13:17:31;;;;;;;12.10;7.00;;;;;;;;;;1031356;28;100102;-76
2021/09/03 13:18:02;;;;;;;8.98;6.60;;;;;;;;;;1029902;28;100219;-77
2021/09/03 13:18:34;;;;;;;7.80;6.15;;;;;;;;;;1031125;28;100149;-80
2021/09/03 13:19:11;;;;;;;9.23;7.28;;;;;;;;;;1020558;28;100483;-78
2021/09/03 13:19:41;;;;;;;10.77;6.25;;;;;;;;;;1022685;28;100088;-72
2021/09/03 13:20:13;;;;;;;10.80;6.70;;;;;;;;;;1021258;28;101544;-72
2021/09/03 13:20:44;;;;;;;12.98;6.55;;;;;;;;;;1027496;28;100175;-71
2021/09/03 13:21:15;;;;;;;8.98;6.43;;;;;;;;;;1029364;28;100203;-71
2021/09/03 13:21:47;;;;;;;11.73;6.57;;;;;;;;;;1030740;28;100127;-74
2021/09/03 13:22:18;;;;;;;10.93;6.93;;;;;;;;;;1028997;28;101858;-70
2021/09/03 13:22:49;;;;;;;8.85;6.30;;;;;;;;;;1030106;28;100151;-74
2021/09/03 13:23:20;;;;;;;7.95;6.05;;;;;;;;;;1024985;28;101667;-73
2021/09/03 13:23:50;;;;;;;10.63;7.07;;;;;;;;;;1026420;28;100111;-73
2021/09/03 13:24:22;;;;;;;7.60;6.13;;;;;;;;;;1016736;28;103139;-72
2021/09/03 13:24:53;;;;;;;9.43;7.15;;;;;;;;;;1022755;28;100215;-74
2021/09/03 13:25:23;;;;;;;11.80;6.25;;;;;;;;;;1024884;28;101670;-74
2021/09/03 13:25:55;;;;;;;29.23;16.40;;;;;;;;;;1026202;28;100092;-74
2021/09/03 13:26:26;;;;;;;31.88;21.25;;;;;;;;;;1029219;28;100316;-74
2021/09/03 13:26:57;;;;;;;25.15;17.38;;;;;;;;;;1030361;28;100122;-75
2021/09/03 13:27:28;;;;;;;8.68;6.30;;;;;;;;;;1028915;28;100393;-73
2021/09/03 13:27:59;;;;;;;11.25;8.23;;;;;;;;;;1026162;28;100038;-74
2021/09/03 13:28:30;;;;;;;200.23;126.70;;;;;;;;;;1029127;28;100793;-73
2021/09/03 13:29:00;;;;;;;26.23;15.95;;;;;;;;;;1030191;28;100071;-73
2021/09/03 13:29:31;;;;;;;24.42;15.43;;;;;;;;;;1033075;28;100291;-72
2021/09/03 13:30:03;;;;;;;21.40;12.57;;;;;;;;;;1030119;28;100144;-68
2021/09/03 13:30:34;;;;;;;19.55;12.38;;;;;;;;;;1024521;28;100681;-69
2021/09/03 13:31:04;;;;;;;24.70;15.15;;;;;;;;;;1021583;28;100797;-69
2021/09/03 13:31:35;;;;;;;17.67;11.85;;;;;;;;;;1027450;28;100803;-72
2021/09/03 13:32:07;;;;;;;16.05;8.98;;;;;;;;;;1034110;28;100179;-72
2021/09/03 13:32:38;;;;;;;19.08;11.43;;;;;;;;;;1033264;28;100403;-71
2021/09/03 13:33:09;;;;;;;15.60;10.35;;;;;;;;;;1034270;28;100049;-71
2021/09/03 13:33:40;;;;;;;17.38;10.23;;;;;;;;;;1033306;28;101244;-71
2021/09/03 13:34:11;;;;;;;14.57;10.55;;;;;;;;;;1034784;28;100083;-73
2021/09/03 13:34:41;;;;;;;15.80;10.30;;;;;;;;;;1033327;28;100265;-72
2021/09/03 13:35:12;;;;;;;13.02;8.88;;;;;;;;;;1034827;28;100223;-72
2021/09/03 13:35:43;;;;;;;15.38;10.90;;;;;;;;;;1033463;28;100254;-70
2021/09/03 13:36:14;;;;;;;14.15;10.02;;;;;;;;;;1034140;28;100037;-71
2021/09/03 13:36:45;;;;;;;12.02;9.35;;;;;;;;;;1037291;28;100850;-72
2021/09/03 13:38:20;;;;;;;14.00;8.57;;;;;;;;;;1018438;28;102571;-77
2021/09/03 13:38:56;;;;;;;14.63;8.93;;;;;;;;;;1018267;28;100071;-77
2021/09/03 13:39:26;;;;;;;13.38;8.63;;;;;;;;;;1020765;28;103169;-76
2021/09/03 13:39:57;;;;;;;12.77;9.25;;;;;;;;;;1022356;28;100048;-74
2021/09/03 13:40:28;;;;;;;13.18;8.23;;;;;;;;;;1016806;28;100664;-74
2021/09/03 13:41:00;;;;;;;15.80;10.05;;;;;;;;;;1018171;28;100199;-75
2021/09/03 13:41:32;;;;;;;57.72;43.38;;;;;;;;;;1016788;28;100332;-75
2021/09/03 13:42:03;;;;;;;28.20;20.20;;;;;;;;;;1016524;28;100160;-77
2021/09/03 13:42:35;;;;;;;14.63;8.63;;;;;;;;;;1014090;28;100560;-75
2021/09/03 13:43:06;;;;;;;15.35;9.88;;;;;;;;;;1015365;28;100365;-74
2021/09/03 13:43:36;;;;;;;20.20;14.15;;;;;;;;;;1013967;28;101448;-75
2021/09/03 13:44:07;;;;;;;17.80;11.90;;;;;;;;;;1014988;28;100029;-77
2021/09/03 13:44:39;;;;;;;15.93;11.05;;;;;;;;;;1014237;28;100709;-75
2021/09/03 13:45:10;;;;;;;17.95;11.70;;;;;;;;;;1015962;28;100027;-73
2021/09/03 13:45:41;;;;;;;16.65;11.43;;;;;;;;;;1015188;28;100283;-74
2021/09/03 13:46:13;;;;;;;14.02;9.40;;;;;;;;;;1014024;28;99976;-72
2021/09/03 13:46:44;;;;;;;12.38;8.75;;;;;;;;;;1013947;28;101835;-72
2021/09/03 13:47:15;;;;;;;12.40;8.43;;;;;;;;;;1013172;28;100017;-73
2021/09/03 13:47:45;;;;;;;15.20;8.80;;;;;;;;;;1014017;28;100303;-73
2021/09/03 13:48:16;;;;;;;12.25;8.93;;;;;;;;;;1015825;28;99912;-74
2021/09/03 13:48:47;;;;;;;13.57;9.18;;;;;;;;;;1014632;28;100170;-73
2021/09/03 13:49:19;;;;;;;12.25;8.77;;;;;;;;;;1015631;28;99952;-73
2021/09/03 13:49:50;;;;;;;11.95;8.77;;;;;;;;;;1015111;28;100161;-74
2021/09/03 13:50:20;;;;;;;15.00;9.10;;;;;;;;;;1019931;28;99977;-74
2021/09/03 13:50:52;;;;;;;13.32;9.30;;;;;;;;;;1018342;28;100252;-74
2021/09/03 13:51:26;;;;;;;11.52;7.90;;;;;;;;;;1020079;28;100108;-73
2021/09/03 13:51:57;;;;;;;13.25;7.97;;;;;;;;;;1018789;28;100286;-74
2021/09/03 13:52:28;;;;;;;13.85;9.10;;;;;;;;;;1020092;28;101315;-73
2021/09/03 13:52:59;;;;;;;13.02;8.48;;;;;;;;;;1018136;28;100613;-72
2021/09/03 13:53:30;;;;;;;10.57;7.93;;;;;;;;;;1016253;28;100099;-72
2021/09/03 13:54:01;;;;;;;10.63;7.22;;;;;;;;;;1014985;28;100529;-72
2021/09/03 13:54:32;;;;;;;11.18;7.55;;;;;;;;;;1016011;28;100261;-72
2021/09/03 13:55:04;;;;;;;12.63;8.63;;;;;;;;;;1018278;28;101552;-71
2021/09/03 13:55:36;;;;;;;11.30;7.97;;;;;;;;;;1019854;28;99998;-71
2021/09/03 13:56:07;;;;;;;13.32;8.23;;;;;;;;;;1014298;28;101530;-72
2021/09/03 13:56:40;;;;;;;11.15;7.97;;;;;;;;;;1016100;28;99910;-72
2021/09/03 13:57:12;;;;;;;10.85;8.18;;;;;;;;;;1010499;28;101781;-72
2021/09/03 13:57:42;;;;;;;12.30;8.00;;;;;;;;;;1012636;28;100103;-72
2021/09/03 13:58:13;;;;;;;12.95;8.18;;;;;;;;;;1014767;28;100237;-73
2021/09/03 13:58:45;;;;;;;15.30;9.63;;;;;;;;;;1015337;28;100101;-70
2021/09/03 13:59:26;;;;;;;20.95;11.63;;;;;;;;;;1018416;28;103819;-73
2021/09/03 13:59:57;;;;;;;;;;;;;;;;;;1020158;28;100307;-71
2021/09/03 14:00:27;;;;;;;;;;;;;;;;;;1019121;28;100308;-69
2021/09/03 14:00:59;;;;;;;122.38;49.80;;;;;;;;;;1018498;28;99910;-70
2021/09/03 14:01:30;;;;;;;128.88;50.72;;;;;;;;;;1018301;28;101002;-70
2021/09/03 14:02:02;;;;;;;124.38;51.00;;;;;;;;;;1019810;28;99970;-72
2021/09/03 14:02:33;;;;;;;309.77;123.95;;;;;;;;;;1018556;28;100303;-70
2021/09/03 14:03:06;;;;;;;75.05;31.42;;;;;;;;;;1019260;28;100254;-71
2021/09/03 14:03:36;;;;;;;184.88;74.55;;;;;;;;;;1015000;28;100288;-70
2021/09/03 14:04:07;;;;;;;168.18;68.47;;;;;;;;;;1015845;28;101070;-71
2021/09/03 14:04:38;;;;;;;85.93;36.33;;;;;;;;;;1008173;28;100346;-70
2021/09/03 14:05:10;;;;;;;104.00;44.55;;;;;;;;;;1007403;28;100224;-69
2021/09/03 14:05:41;;;;;;;139.80;56.47;;;;;;;;;;1002845;28;101664;-71
2021/09/03 14:06:13;;;;;;;121.82;52.38;;;;;;;;;;1008205;28;100209;-70
2021/09/03 14:06:44;;;;;;;246.13;103.72;;;;;;;;;;1007338;28;100918;-70
2021/09/03 14:07:16;;;;;;;353.80;151.00;;;;;;;;;;1011818;28;99868;-70
2021/09/03 14:07:47;;;;;;;338.02;140.20;;;;;;;;;;1014510;28;100371;-69
2021/09/03 14:08:17;;;;;;;146.18;58.67;;;;;;;;;;1015695;28;99915;-73
2021/09/03 14:08:48;;;;;;;146.60;60.38;;;;;;;;;;1018391;28;100386;-72
2021/09/03 14:09:19;;;;;;;146.68;60.63;;;;;;;;;;1019241;28;99988;-72
2021/09/03 14:09:51;;;;;;;212.52;87.03;;;;;;;;;;1018639;28;101382;-71
2021/09/03 14:10:21;;;;;;;159.15;60.72;;;;;;;;;;1015954;28;100003;-70
2021/09/03 14:10:52;;;;;;;136.63;59.17;;;;;;;;;;1014520;28;100265;-80
2021/09/03 14:11:23;;;;;;;132.85;55.22;;;;;;;;;;1012293;28;100192;-71
2021/09/03 14:11:55;;;;;;;139.10;56.22;;;;;;;;;;1015166;28;100227;-72
2021/09/03 14:12:26;;;;;;;164.07;66.82;;;;;;;;;;1019326;28;100170;-79
2021/09/03 14:12:57;;;;;;;195.07;81.50;;;;;;;;;;1018192;28;101909;-70
2021/09/03 14:13:28;;;;;;;159.75;65.15;;;;;;;;;;1019975;28;100159;-69
2021/09/03 14:13:59;;;;;;;138.85;56.80;;;;;;;;;;1018533;28;103107;-72
2021/09/03 14:14:29;;;;;;;150.85;59.13;;;;;;;;;;1019402;28;100113;-70
2021/09/03 14:15:01;;;;;;;144.57;58.83;;;;;;;;;;1014675;28;100298;-70
2021/09/03 14:15:32;;;;;;;165.02;66.10;;;;;;;;;;1015699;28;100165;-70
2021/09/03 14:16:03;;;;;;;122.07;51.05;;;;;;;;;;1018147;28;101570;-70
2021/09/03 14:16:34;;;;;;;119.90;48.38;;;;;;;;;;1019695;28;99887;-73
2021/09/03 14:17:06;;;;;;;117.80;49.33;;;;;;;;;;1014214;28;101576;-71
2021/09/03 14:17:38;;;;;;;133.95;54.92;;;;;;;;;;1015839;28;100114;-70
2021/09/03 14:18:12;;;;;;;146.43;60.10;;;;;;;;;;1014459;28;100823;-70
2021/09/03 14:18:43;;;;;;;161.35;67.00;;;;;;;;;;1012737;28;100226;-70
2021/09/03 14:19:13;;;;;;;205.65;82.15;;;;;;;;;;1010962;28;100566;-70
2021/09/03 14:19:44;;;;;;;110.47;47.15;;;;;;;;;;1012083;28;100020;-70
2021/09/03 14:20:21;;;;;;;115.75;49.35;;;;;;;;;;1011285;28;100483;-70
2021/09/03 14:20:52;;;;;;;146.63;56.97;;;;;;;;;;1015917;28;100286;-70
2021/09/03 14:21:23;;;;;;;126.55;53.83;;;;;;;;;;1018824;28;100304;-70
2021/09/03 14:21:54;;;;;;;146.82;59.55;;;;;;;;;;1015839;28;100036;-70
2021/09/03 14:22:25;;;;;;;110.68;45.60;;;;;;;;;;1010524;28;103346;-70
2021/09/03 14:22:56;;;;;;;117.70;46.10;;;;;;;;;;1007692;28;100355;-71
2021/09/03 14:23:26;;;;;;;110.28;45.42;;;;;;;;;;1006625;28;100814;-81
2021/09/03 14:23:57;;;;;;;116.88;47.40;;;;;;;;;;1011782;28;100265;-76
2021/09/03 14:24:28;;;;;;;199.18;81.82;;;;;;;;;;1010974;28;100285;-72
2021/09/03 14:24:59;;;;;;;199.30;79.00;;;;;;;;;;1012017;28;99929;-71
2021/09/03 14:25:32;;;;;;;180.23;77.05;;;;;;;;;;1006514;28;103215;-71
2021/09/03 14:26:04;;;;;;;188.73;76.43;;;;;;;;;;1009339;28;100353;-71
2021/09/03 14:26:35;;;;;;;170.60;69.68;;;;;;;;;;1006780;28;103254;-70
2021/09/03 14:27:08;;;;;;;135.63;57.03;;;;;;;;;;1009079;28;99890;-70
2021/09/03 14:27:38;;;;;;;124.68;49.67;;;;;;;;;;1017311;28;100219;-70
2021/09/03 14:28:10;;;;;;;103.10;42.33;;;;;;;;;;1019860;28;99841;-71
2021/09/03 14:28:41;;;;;;;110.88;49.00;;;;;;;;;;1014582;28;101937;-69
2021/09/03 14:29:12;;;;;;;110.32;46.13;;;;;;;;;;1016150;28;99841;-69
2021/09/03 14:29:43;;;;;;;103.78;43.88;;;;;;;;;;1014821;28;100350;-70
2021/09/03 14:30:17;;;;;;;104.38;45.13;;;;;;;;;;1016095;28;100039;-71
2021/09/03 14:30:48;;;;;;;104.82;45.75;;;;;;;;;;1013203;28;101497;-70
2021/09/03 14:31:19;;;;;;;116.97;48.05;;;;;;;;;;1015752;28;100118;-70
2021/09/03 14:31:50;;;;;;;139.68;62.05;;;;;;;;;;1014783;28;100243;-69
2021/09/03 14:32:21;;;;;;;109.68;48.90;;;;;;;;;;1015981;28;99872;-71
2021/09/03 14:32:52;;;;;;;109.45;47.33;;;;;;;;;;1018819;28;100209;-70
2021/09/03 14:33:22;;;;;;;119.30;48.13;;;;;;;;;;1016225;28;100050;-70
2021/09/03 14:33:53;;;;;;;153.35;65.25;;;;;;;;;;1014698;28;100336;-68
